sensor_id;sensor_type;location;lat;lon;timestamp;P1;durP1;ratioP1;P2;durP2;ratioP2
77769;SDS011;66961;51.482;9.160;2023-07-29T00:00:25;5.07;;;1.50;;
77769;SDS011;66961;51.482;9.160;2023-07-29T00:02:50;4.40;;;1.57;;
77769;SDS011;66961;51.482;9.160;2023-07-29T00:05:15;3.33;;;1.30;;
77769;SDS011;66961;51.482;9.160;2023-07-29T00:07:41;5.38;;;1.55;;
77769;SDS011;66961;51.482;9.160;2023-07-29T00:10:06;4.57;;;1.73;;
77769;SDS011;66961;51.482;9.160;2023-07-29T00:12:32;2.90;;;1.50;;
77769;SDS011;66961;51.482;9.160;2023-07-29T00:14:57;2.80;;;1.60;;
77769;SDS011;66961;51.482;9.160;2023-07-29T00:17:23;5.07;;;1.70;;
77769;SDS011;66961;51.482;9.160;2023-07-29T00:19:48;4.23;;;1.63;;
77769;SDS011;66961;51.482;9.160;2023-07-29T00:22:13;4.37;;;1.43;;
77769;SDS011;66961;51.482;9.160;2023-07-29T00:24:39;2.77;;;1.40;;
77769;SDS011;66961;51.482;9.160;2023-07-29T00:27:04;4.45;;;1.52;;
77769;SDS011;66961;51.482;9.160;2023-07-29T00:29:30;5.50;;;1.60;;
77769;SDS011;66961;51.482;9.160;2023-07-29T00:31:55;7.27;;;1.40;;
77769;SDS011;66961;51.482;9.160;2023-07-29T00:34:20;4.70;;;1.47;;
77769;SDS011;66961;51.482;9.160;2023-07-29T00:36:46;4.00;;;1.50;;
77769;SDS011;66961;51.482;9.160;2023-07-29T00:39:11;2.67;;;1.70;;
77769;SDS011;66961;51.482;9.160;2023-07-29T00:41:36;2.77;;;1.47;;
77769;SDS011;66961;51.482;9.160;2023-07-29T00:44:02;3.65;;;1.65;;
77769;SDS011;66961;51.482;9.160;2023-07-29T00:46:27;5.78;;;1.80;;
77769;SDS011;66961;51.482;9.160;2023-07-29T00:48:53;3.40;;;1.50;;
77769;SDS011;66961;51.482;9.160;2023-07-29T00:51:18;6.47;;;1.85;;
77769;SDS011;66961;51.482;9.160;2023-07-29T00:53:44;5.35;;;1.80;;
77769;SDS011;66961;51.482;9.160;2023-07-29T00:56:09;14.07;;;2.20;;
77769;SDS011;66961;51.482;9.160;2023-07-29T00:58:35;5.10;;;2.10;;
77769;SDS011;66961;51.482;9.160;2023-07-29T01:01:00;8.45;;;1.90;;
77769;SDS011;66961;51.482;9.160;2023-07-29T01:03:25;4.72;;;1.52;;
77769;SDS011;66961;51.482;9.160;2023-07-29T01:08:33;3.20;;;1.90;;
77769;SDS011;66961;51.482;9.160;2023-07-29T01:11:25;3.72;;;1.98;;
77769;SDS011;66961;51.482;9.160;2023-07-29T01:14:17;4.88;;;1.90;;
77769;SDS011;66961;51.482;9.160;2023-07-29T01:16:55;4.35;;;1.95;;
77769;SDS011;66961;51.482;9.160;2023-07-29T01:21:53;7.80;;;2.20;;
77769;SDS011;66961;51.482;9.160;2023-07-29T01:24:19;6.25;;;2.50;;
77769;SDS011;66961;51.482;9.160;2023-07-29T01:26:45;8.52;;;2.72;;
77769;SDS011;66961;51.482;9.160;2023-07-29T01:29:10;7.20;;;2.57;;
77769;SDS011;66961;51.482;9.160;2023-07-29T01:31:38;6.35;;;2.65;;
77769;SDS011;66961;51.482;9.160;2023-07-29T01:34:10;6.85;;;2.60;;
77769;SDS011;66961;51.482;9.160;2023-07-29T01:36:42;7.72;;;2.70;;
77769;SDS011;66961;51.482;9.160;2023-07-29T01:39:10;8.20;;;3.03;;
77769;SDS011;66961;51.482;9.160;2023-07-29T01:41:37;5.60;;;2.88;;
77769;SDS011;66961;51.482;9.160;2023-07-29T01:44:04;9.50;;;2.60;;
77769;SDS011;66961;51.482;9.160;2023-07-29T01:46:32;6.93;;;2.80;;
77769;SDS011;66961;51.482;9.160;2023-07-29T01:48:58;6.50;;;2.67;;
77769;SDS011;66961;51.482;9.160;2023-07-29T01:51:24;9.40;;;2.57;;
77769;SDS011;66961;51.482;9.160;2023-07-29T01:53:49;8.83;;;2.80;;
77769;SDS011;66961;51.482;9.160;2023-07-29T01:56:14;10.20;;;3.00;;
77769;SDS011;66961;51.482;9.160;2023-07-29T01:58:41;6.78;;;2.85;;
77769;SDS011;66961;51.482;9.160;2023-07-29T02:01:06;7.90;;;2.93;;
77769;SDS011;66961;51.482;9.160;2023-07-29T02:03:31;8.67;;;2.63;;
77769;SDS011;66961;51.482;9.160;2023-07-29T02:05:56;9.87;;;2.83;;
77769;SDS011;66961;51.482;9.160;2023-07-29T02:08:22;13.40;;;2.80;;
77769;SDS011;66961;51.482;9.160;2023-07-29T02:10:47;8.50;;;2.90;;
77769;SDS011;66961;51.482;9.160;2023-07-29T02:13:12;11.07;;;2.50;;
77769;SDS011;66961;51.482;9.160;2023-07-29T02:15:38;4.33;;;2.63;;
77769;SDS011;66961;51.482;9.160;2023-07-29T02:18:03;5.50;;;2.20;;
77769;SDS011;66961;51.482;9.160;2023-07-29T02:20:28;8.13;;;2.87;;
77769;SDS011;66961;51.482;9.160;2023-07-29T02:22:53;6.72;;;2.00;;
77769;SDS011;66961;51.482;9.160;2023-07-29T02:25:19;4.20;;;2.13;;
77769;SDS011;66961;51.482;9.160;2023-07-29T02:27:44;7.15;;;2.60;;
77769;SDS011;66961;51.482;9.160;2023-07-29T02:30:09;7.73;;;2.63;;
77769;SDS011;66961;51.482;9.160;2023-07-29T02:32:35;10.82;;;2.40;;
77769;SDS011;66961;51.482;9.160;2023-07-29T02:35:00;3.53;;;2.40;;
77769;SDS011;66961;51.482;9.160;2023-07-29T02:37:26;6.65;;;2.70;;
77769;SDS011;66961;51.482;9.160;2023-07-29T02:39:51;7.57;;;2.50;;
77769;SDS011;66961;51.482;9.160;2023-07-29T02:42:16;5.07;;;2.00;;
77769;SDS011;66961;51.482;9.160;2023-07-29T02:44:42;6.47;;;2.40;;
77769;SDS011;66961;51.482;9.160;2023-07-29T02:47:07;5.20;;;2.57;;
77769;SDS011;66961;51.482;9.160;2023-07-29T02:49:32;3.90;;;2.57;;
77769;SDS011;66961;51.482;9.160;2023-07-29T02:51:57;5.30;;;2.70;;
77769;SDS011;66961;51.482;9.160;2023-07-29T02:54:23;4.40;;;2.60;;
77769;SDS011;66961;51.482;9.160;2023-07-29T02:56:49;8.07;;;2.50;;
77769;SDS011;66961;51.482;9.160;2023-07-29T02:59:15;8.30;;;3.00;;
77769;SDS011;66961;51.482;9.160;2023-07-29T03:01:40;4.28;;;2.83;;
77769;SDS011;66961;51.482;9.160;2023-07-29T03:04:06;6.90;;;3.03;;
77769;SDS011;66961;51.482;9.160;2023-07-29T03:06:31;4.70;;;2.73;;
77769;SDS011;66961;51.482;9.160;2023-07-29T03:08:56;10.13;;;3.00;;
77769;SDS011;66961;51.482;9.160;2023-07-29T03:11:21;4.60;;;2.77;;
77769;SDS011;66961;51.482;9.160;2023-07-29T03:13:47;7.40;;;3.30;;
77769;SDS011;66961;51.482;9.160;2023-07-29T03:16:13;6.60;;;3.37;;
77769;SDS011;66961;51.482;9.160;2023-07-29T03:18:40;4.25;;;3.25;;
77769;SDS011;66961;51.482;9.160;2023-07-29T03:21:06;4.65;;;3.10;;
77769;SDS011;66961;51.482;9.160;2023-07-29T03:23:32;5.13;;;3.10;;
77769;SDS011;66961;51.482;9.160;2023-07-29T03:25:58;6.43;;;3.22;;
77769;SDS011;66961;51.482;9.160;2023-07-29T03:28:27;6.38;;;3.10;;
77769;SDS011;66961;51.482;9.160;2023-07-29T03:30:54;4.35;;;3.80;;
77769;SDS011;66961;51.482;9.160;2023-07-29T03:33:20;9.57;;;3.88;;
77769;SDS011;66961;51.482;9.160;2023-07-29T03:35:45;5.45;;;3.13;;
77769;SDS011;66961;51.482;9.160;2023-07-29T03:38:11;5.03;;;3.30;;
77769;SDS011;66961;51.482;9.160;2023-07-29T03:40:37;6.25;;;3.92;;
77769;SDS011;66961;51.482;9.160;2023-07-29T03:43:02;6.03;;;4.20;;
77769;SDS011;66961;51.482;9.160;2023-07-29T03:45:28;9.68;;;4.05;;
77769;SDS011;66961;51.482;9.160;2023-07-29T03:47:53;10.55;;;4.13;;
77769;SDS011;66961;51.482;9.160;2023-07-29T03:50:18;8.10;;;4.33;;
77769;SDS011;66961;51.482;9.160;2023-07-29T03:52:44;8.10;;;4.37;;
77769;SDS011;66961;51.482;9.160;2023-07-29T03:55:09;7.77;;;3.90;;
77769;SDS011;66961;51.482;9.160;2023-07-29T03:57:34;8.27;;;4.20;;
77769;SDS011;66961;51.482;9.160;2023-07-29T03:59:59;7.80;;;3.93;;
77769;SDS011;66961;51.482;9.160;2023-07-29T04:02:25;4.80;;;3.40;;
77769;SDS011;66961;51.482;9.160;2023-07-29T04:04:50;13.60;;;4.97;;
77769;SDS011;66961;51.482;9.160;2023-07-29T04:07:15;5.73;;;4.10;;
77769;SDS011;66961;51.482;9.160;2023-07-29T04:09:40;5.40;;;4.35;;
77769;SDS011;66961;51.482;9.160;2023-07-29T04:12:06;5.95;;;4.13;;
77769;SDS011;66961;51.482;9.160;2023-07-29T04:14:32;7.20;;;4.55;;
77769;SDS011;66961;51.482;9.160;2023-07-29T04:16:57;10.87;;;5.60;;
77769;SDS011;66961;51.482;9.160;2023-07-29T04:19:22;5.50;;;4.90;;
77769;SDS011;66961;51.482;9.160;2023-07-29T04:21:48;7.70;;;5.27;;
77769;SDS011;66961;51.482;9.160;2023-07-29T04:24:13;6.10;;;5.00;;
77769;SDS011;66961;51.482;9.160;2023-07-29T04:26:38;6.90;;;5.10;;
77769;SDS011;66961;51.482;9.160;2023-07-29T04:29:03;5.97;;;4.67;;
77769;SDS011;66961;51.482;9.160;2023-07-29T04:31:29;5.20;;;4.53;;
77769;SDS011;66961;51.482;9.160;2023-07-29T04:33:54;7.13;;;4.87;;
77769;SDS011;66961;51.482;9.160;2023-07-29T04:36:19;7.67;;;5.30;;
77769;SDS011;66961;51.482;9.160;2023-07-29T04:38:44;7.87;;;4.70;;
77769;SDS011;66961;51.482;9.160;2023-07-29T04:41:10;7.30;;;4.40;;
77769;SDS011;66961;51.482;9.160;2023-07-29T04:43:35;5.77;;;4.60;;
77769;SDS011;66961;51.482;9.160;2023-07-29T04:46:00;10.13;;;5.07;;
77769;SDS011;66961;51.482;9.160;2023-07-29T04:48:25;6.83;;;5.50;;
77769;SDS011;66961;51.482;9.160;2023-07-29T04:50:51;6.67;;;5.27;;
77769;SDS011;66961;51.482;9.160;2023-07-29T04:53:16;6.97;;;5.10;;
77769;SDS011;66961;51.482;9.160;2023-07-29T04:55:41;7.37;;;5.20;;
77769;SDS011;66961;51.482;9.160;2023-07-29T04:58:07;7.85;;;5.93;;
77769;SDS011;66961;51.482;9.160;2023-07-29T05:00:32;9.93;;;6.37;;
77769;SDS011;66961;51.482;9.160;2023-07-29T05:02:57;6.90;;;5.40;;
77769;SDS011;66961;51.482;9.160;2023-07-29T05:05:23;9.33;;;6.23;;
77769;SDS011;66961;51.482;9.160;2023-07-29T05:07:48;6.83;;;6.03;;
77769;SDS011;66961;51.482;9.160;2023-07-29T05:10:13;9.27;;;6.00;;
77769;SDS011;66961;51.482;9.160;2023-07-29T05:12:38;7.40;;;6.70;;
77769;SDS011;66961;51.482;9.160;2023-07-29T05:15:04;6.37;;;5.77;;
77769;SDS011;66961;51.482;9.160;2023-07-29T05:17:30;9.10;;;5.95;;
77769;SDS011;66961;51.482;9.160;2023-07-29T05:19:55;8.18;;;6.35;;
77769;SDS011;66961;51.482;9.160;2023-07-29T05:22:20;9.43;;;6.67;;
77769;SDS011;66961;51.482;9.160;2023-07-29T05:24:45;8.23;;;6.40;;
77769;SDS011;66961;51.482;9.160;2023-07-29T05:27:11;8.13;;;6.90;;
77769;SDS011;66961;51.482;9.160;2023-07-29T05:29:36;12.13;;;7.33;;
77769;SDS011;66961;51.482;9.160;2023-07-29T05:32:01;9.10;;;6.80;;
77769;SDS011;66961;51.482;9.160;2023-07-29T05:34:27;7.97;;;7.18;;
77769;SDS011;66961;51.482;9.160;2023-07-29T05:36:52;8.32;;;7.40;;
77769;SDS011;66961;51.482;9.160;2023-07-29T05:39:17;8.83;;;7.53;;
77769;SDS011;66961;51.482;9.160;2023-07-29T05:41:43;7.73;;;6.67;;
77769;SDS011;66961;51.482;9.160;2023-07-29T05:44:08;7.40;;;6.30;;
77769;SDS011;66961;51.482;9.160;2023-07-29T05:46:33;6.60;;;6.00;;
77769;SDS011;66961;51.482;9.160;2023-07-29T05:48:58;5.90;;;5.30;;
77769;SDS011;66961;51.482;9.160;2023-07-29T05:51:24;7.83;;;7.03;;
77769;SDS011;66961;51.482;9.160;2023-07-29T05:53:49;7.67;;;6.53;;
77769;SDS011;66961;51.482;9.160;2023-07-29T05:56:14;7.03;;;6.17;;
77769;SDS011;66961;51.482;9.160;2023-07-29T05:58:39;7.53;;;6.80;;
77769;SDS011;66961;51.482;9.160;2023-07-29T06:01:05;8.43;;;5.70;;
77769;SDS011;66961;51.482;9.160;2023-07-29T06:03:30;7.07;;;6.43;;
77769;SDS011;66961;51.482;9.160;2023-07-29T06:05:55;8.13;;;5.67;;
77769;SDS011;66961;51.482;9.160;2023-07-29T06:08:21;6.07;;;5.27;;
77769;SDS011;66961;51.482;9.160;2023-07-29T06:10:46;7.88;;;7.05;;
77769;SDS011;66961;51.482;9.160;2023-07-29T06:13:11;8.53;;;6.60;;
77769;SDS011;66961;51.482;9.160;2023-07-29T06:15:36;6.83;;;5.37;;
77769;SDS011;66961;51.482;9.160;2023-07-29T06:18:02;6.90;;;6.20;;
77769;SDS011;66961;51.482;9.160;2023-07-29T06:20:27;5.57;;;4.40;;
77769;SDS011;66961;51.482;9.160;2023-07-29T06:22:53;5.55;;;5.00;;
77769;SDS011;66961;51.482;9.160;2023-07-29T06:25:18;6.33;;;4.90;;
77769;SDS011;66961;51.482;9.160;2023-07-29T06:27:44;5.88;;;5.18;;
77769;SDS011;66961;51.482;9.160;2023-07-29T06:30:09;6.32;;;5.15;;
77769;SDS011;66961;51.482;9.160;2023-07-29T06:32:34;5.68;;;4.38;;
77769;SDS011;66961;51.482;9.160;2023-07-29T06:35:00;6.60;;;3.60;;
77769;SDS011;66961;51.482;9.160;2023-07-29T06:37:25;4.47;;;3.78;;
77769;SDS011;66961;51.482;9.160;2023-07-29T06:39:50;4.33;;;2.67;;
77769;SDS011;66961;51.482;9.160;2023-07-29T06:42:16;2.97;;;2.30;;
77769;SDS011;66961;51.482;9.160;2023-07-29T06:44:41;2.85;;;2.53;;
77769;SDS011;66961;51.482;9.160;2023-07-29T06:47:06;2.10;;;1.90;;
77769;SDS011;66961;51.482;9.160;2023-07-29T06:49:31;1.87;;;1.67;;
77769;SDS011;66961;51.482;9.160;2023-07-29T06:51:57;1.90;;;1.40;;
77769;SDS011;66961;51.482;9.160;2023-07-29T06:54:25;2.60;;;2.03;;
77769;SDS011;66961;51.482;9.160;2023-07-29T06:56:50;3.35;;;1.65;;
77769;SDS011;66961;51.482;9.160;2023-07-29T06:59:16;3.25;;;1.58;;
77769;SDS011;66961;51.482;9.160;2023-07-29T07:01:41;2.80;;;2.07;;
77769;SDS011;66961;51.482;9.160;2023-07-29T07:04:06;4.43;;;2.00;;
77769;SDS011;66961;51.482;9.160;2023-07-29T07:06:32;2.43;;;1.83;;
77769;SDS011;66961;51.482;9.160;2023-07-29T07:08:57;2.70;;;2.00;;
77769;SDS011;66961;51.482;9.160;2023-07-29T07:11:22;2.77;;;2.47;;
77769;SDS011;66961;51.482;9.160;2023-07-29T07:13:47;3.67;;;1.90;;
77769;SDS011;66961;51.482;9.160;2023-07-29T07:16:13;4.37;;;2.83;;
77769;SDS011;66961;51.482;9.160;2023-07-29T07:18:38;8.03;;;6.73;;
77769;SDS011;66961;51.482;9.160;2023-07-29T07:21:03;5.00;;;4.50;;
77769;SDS011;66961;51.482;9.160;2023-07-29T07:23:29;4.37;;;4.00;;
77769;SDS011;66961;51.482;9.160;2023-07-29T07:25:54;4.80;;;4.40;;
77769;SDS011;66961;51.482;9.160;2023-07-29T07:28:19;5.70;;;4.10;;
77769;SDS011;66961;51.482;9.160;2023-07-29T07:30:44;5.80;;;4.43;;
77769;SDS011;66961;51.482;9.160;2023-07-29T07:33:10;7.10;;;4.10;;
77769;SDS011;66961;51.482;9.160;2023-07-29T07:35:35;5.67;;;4.00;;
77769;SDS011;66961;51.482;9.160;2023-07-29T07:38:01;4.22;;;3.70;;
77769;SDS011;66961;51.482;9.160;2023-07-29T07:40:26;6.60;;;4.67;;
77769;SDS011;66961;51.482;9.160;2023-07-29T07:42:51;4.60;;;4.20;;
77769;SDS011;66961;51.482;9.160;2023-07-29T07:45:16;5.20;;;4.60;;
77769;SDS011;66961;51.482;9.160;2023-07-29T07:47:42;6.23;;;4.07;;
77769;SDS011;66961;51.482;9.160;2023-07-29T07:50:07;5.07;;;4.53;;
77769;SDS011;66961;51.482;9.160;2023-07-29T07:52:32;5.43;;;4.18;;
77769;SDS011;66961;51.482;9.160;2023-07-29T07:54:58;5.20;;;4.10;;
77769;SDS011;66961;51.482;9.160;2023-07-29T07:57:23;4.83;;;3.77;;
77769;SDS011;66961;51.482;9.160;2023-07-29T07:59:48;3.90;;;3.50;;
77769;SDS011;66961;51.482;9.160;2023-07-29T08:02:13;4.80;;;3.90;;
77769;SDS011;66961;51.482;9.160;2023-07-29T08:04:39;4.20;;;3.80;;
77769;SDS011;66961;51.482;9.160;2023-07-29T08:07:04;6.97;;;4.20;;
77769;SDS011;66961;51.482;9.160;2023-07-29T08:09:30;4.65;;;4.25;;
77769;SDS011;66961;51.482;9.160;2023-07-29T08:11:55;5.85;;;5.25;;
77769;SDS011;66961;51.482;9.160;2023-07-29T08:14:20;5.93;;;5.37;;
77769;SDS011;66961;51.482;9.160;2023-07-29T08:16:45;6.67;;;6.07;;
77769;SDS011;66961;51.482;9.160;2023-07-29T08:19:11;7.93;;;5.53;;
77769;SDS011;66961;51.482;9.160;2023-07-29T08:21:36;5.40;;;4.90;;
77769;SDS011;66961;51.482;9.160;2023-07-29T08:24:01;5.77;;;5.10;;
77769;SDS011;66961;51.482;9.160;2023-07-29T08:26:27;5.50;;;5.03;;
77769;SDS011;66961;51.482;9.160;2023-07-29T08:28:52;5.78;;;4.72;;
77769;SDS011;66961;51.482;9.160;2023-07-29T08:31:17;5.43;;;4.93;;
77769;SDS011;66961;51.482;9.160;2023-07-29T08:33:42;5.10;;;4.60;;
77769;SDS011;66961;51.482;9.160;2023-07-29T08:36:08;4.60;;;4.20;;
77769;SDS011;66961;51.482;9.160;2023-07-29T08:38:33;4.37;;;3.90;;
77769;SDS011;66961;51.482;9.160;2023-07-29T08:41:08;3.83;;;3.33;;
77769;SDS011;66961;51.482;9.160;2023-07-29T08:43:39;2.97;;;2.70;;
77769;SDS011;66961;51.482;9.160;2023-07-29T08:46:13;3.50;;;3.20;;
77769;SDS011;66961;51.482;9.160;2023-07-29T08:51:08;2.63;;;2.42;;
77769;SDS011;66961;51.482;9.160;2023-07-29T08:53:34;2.60;;;2.40;;
77769;SDS011;66961;51.482;9.160;2023-07-29T08:56:00;3.60;;;2.10;;
77769;SDS011;66961;51.482;9.160;2023-07-29T08:58:26;4.97;;;1.70;;
77769;SDS011;66961;51.482;9.160;2023-07-29T09:00:51;1.65;;;1.50;;
77769;SDS011;66961;51.482;9.160;2023-07-29T09:03:17;2.70;;;2.00;;
77769;SDS011;66961;51.482;9.160;2023-07-29T09:05:42;3.07;;;1.90;;
77769;SDS011;66961;51.482;9.160;2023-07-29T09:08:08;3.05;;;1.90;;
77769;SDS011;66961;51.482;9.160;2023-07-29T09:10:37;2.50;;;1.85;;
77769;SDS011;66961;51.482;9.160;2023-07-29T09:13:02;2.42;;;1.90;;
77769;SDS011;66961;51.482;9.160;2023-07-29T09:15:33;2.70;;;1.80;;
77769;SDS011;66961;51.482;9.160;2023-07-29T09:18:08;2.00;;;1.80;;
77769;SDS011;66961;51.482;9.160;2023-07-29T09:20:34;2.97;;;1.90;;
77769;SDS011;66961;51.482;9.160;2023-07-29T09:23:00;2.85;;;2.13;;
77769;SDS011;66961;51.482;9.160;2023-07-29T09:25:25;2.20;;;2.00;;
77769;SDS011;66961;51.482;9.160;2023-07-29T09:27:52;3.65;;;2.50;;
77769;SDS011;66961;51.482;9.160;2023-07-29T09:30:18;2.40;;;2.17;;
77769;SDS011;66961;51.482;9.160;2023-07-29T09:32:43;2.33;;;2.13;;
77769;SDS011;66961;51.482;9.160;2023-07-29T09:35:12;4.60;;;2.17;;
77769;SDS011;66961;51.482;9.160;2023-07-29T09:37:38;2.47;;;2.28;;
77769;SDS011;66961;51.482;9.160;2023-07-29T09:40:05;3.15;;;2.60;;
77769;SDS011;66961;51.482;9.160;2023-07-29T09:42:31;4.10;;;2.33;;
77769;SDS011;66961;51.482;9.160;2023-07-29T09:44:57;2.20;;;2.00;;
77769;SDS011;66961;51.482;9.160;2023-07-29T09:47:23;2.13;;;1.92;;
77769;SDS011;66961;51.482;9.160;2023-07-29T09:49:49;3.17;;;2.10;;
77769;SDS011;66961;51.482;9.160;2023-07-29T09:52:16;2.42;;;1.42;;
77769;SDS011;66961;51.482;9.160;2023-07-29T09:54:42;2.70;;;1.83;;
77769;SDS011;66961;51.482;9.160;2023-07-29T09:57:13;3.30;;;2.05;;
77769;SDS011;66961;51.482;9.160;2023-07-29T09:59:38;2.08;;;1.83;;
77769;SDS011;66961;51.482;9.160;2023-07-29T10:02:04;2.30;;;2.10;;
77769;SDS011;66961;51.482;9.160;2023-07-29T10:04:29;2.45;;;1.98;;
77769;SDS011;66961;51.482;9.160;2023-07-29T10:06:56;2.05;;;1.85;;
77769;SDS011;66961;51.482;9.160;2023-07-29T10:09:22;2.85;;;1.90;;
77769;SDS011;66961;51.482;9.160;2023-07-29T10:11:48;2.78;;;2.15;;
77769;SDS011;66961;51.482;9.160;2023-07-29T10:14:15;3.72;;;1.98;;
77769;SDS011;66961;51.482;9.160;2023-07-29T10:16:40;2.42;;;2.22;;
77769;SDS011;66961;51.482;9.160;2023-07-29T10:19:07;3.63;;;2.15;;
77769;SDS011;66961;51.482;9.160;2023-07-29T10:21:32;2.30;;;2.10;;
77769;SDS011;66961;51.482;9.160;2023-07-29T10:24:01;1.95;;;1.70;;
77769;SDS011;66961;51.482;9.160;2023-07-29T10:26:31;2.22;;;1.92;;
77769;SDS011;66961;51.482;9.160;2023-07-29T10:28:58;5.63;;;2.03;;
77769;SDS011;66961;51.482;9.160;2023-07-29T10:31:24;2.38;;;2.05;;
77769;SDS011;66961;51.482;9.160;2023-07-29T10:33:50;3.25;;;2.20;;
77769;SDS011;66961;51.482;9.160;2023-07-29T10:36:15;2.85;;;2.15;;
77769;SDS011;66961;51.482;9.160;2023-07-29T10:38:41;4.82;;;2.65;;
77769;SDS011;66961;51.482;9.160;2023-07-29T10:41:07;4.20;;;2.22;;
77769;SDS011;66961;51.482;9.160;2023-07-29T10:43:33;2.70;;;2.50;;
77769;SDS011;66961;51.482;9.160;2023-07-29T10:46:14;2.95;;;2.03;;
77769;SDS011;66961;51.482;9.160;2023-07-29T10:48:41;2.78;;;1.85;;
77769;SDS011;66961;51.482;9.160;2023-07-29T10:53:54;2.22;;;1.77;;
77769;SDS011;66961;51.482;9.160;2023-07-29T10:56:26;3.80;;;2.00;;
77769;SDS011;66961;51.482;9.160;2023-07-29T10:58:52;1.50;;;1.40;;
77769;SDS011;66961;51.482;9.160;2023-07-29T11:01:27;1.98;;;1.73;;
77769;SDS011;66961;51.482;9.160;2023-07-29T11:15:25;2.90;;;1.75;;
77769;SDS011;66961;51.482;9.160;2023-07-29T11:20:24;1.95;;;1.30;;
77769;SDS011;66961;51.482;9.160;2023-07-29T11:22:54;2.50;;;1.60;;
77769;SDS011;66961;51.482;9.160;2023-07-29T11:25:21;4.22;;;1.52;;
77769;SDS011;66961;51.482;9.160;2023-07-29T11:27:47;1.52;;;1.35;;
77769;SDS011;66961;51.482;9.160;2023-07-29T11:30:13;1.65;;;1.35;;
77769;SDS011;66961;51.482;9.160;2023-07-29T11:32:41;1.70;;;1.27;;
77769;SDS011;66961;51.482;9.160;2023-07-29T11:35:11;1.65;;;1.30;;
77769;SDS011;66961;51.482;9.160;2023-07-29T11:37:38;1.63;;;1.33;;
77769;SDS011;66961;51.482;9.160;2023-07-29T11:40:04;1.75;;;1.20;;
77769;SDS011;66961;51.482;9.160;2023-07-29T11:42:33;3.00;;;1.20;;
77769;SDS011;66961;51.482;9.160;2023-07-29T11:44:59;1.98;;;1.30;;
77769;SDS011;66961;51.482;9.160;2023-07-29T11:47:25;1.73;;;1.30;;
77769;SDS011;66961;51.482;9.160;2023-07-29T11:49:51;1.70;;;1.17;;
77769;SDS011;66961;51.482;9.160;2023-07-29T11:52:16;2.67;;;1.25;;
77769;SDS011;66961;51.482;9.160;2023-07-29T11:54:43;1.30;;;1.15;;
77769;SDS011;66961;51.482;9.160;2023-07-29T11:57:09;1.63;;;1.30;;
77769;SDS011;66961;51.482;9.160;2023-07-29T11:59:34;2.55;;;1.17;;
77769;SDS011;66961;51.482;9.160;2023-07-29T12:02:01;1.42;;;1.13;;
77769;SDS011;66961;51.482;9.160;2023-07-29T12:04:30;1.20;;;1.10;;
77769;SDS011;66961;51.482;9.160;2023-07-29T12:06:56;1.83;;;0.82;;
77769;SDS011;66961;51.482;9.160;2023-07-29T12:09:22;2.55;;;1.20;;
77769;SDS011;66961;51.482;9.160;2023-07-29T12:11:48;1.45;;;1.17;;
77769;SDS011;66961;51.482;9.160;2023-07-29T12:14:13;1.55;;;1.10;;
77769;SDS011;66961;51.482;9.160;2023-07-29T12:16:41;1.35;;;1.05;;
77769;SDS011;66961;51.482;9.160;2023-07-29T12:19:07;1.73;;;1.02;;
77769;SDS011;66961;51.482;9.160;2023-07-29T12:21:33;1.30;;;1.00;;
77769;SDS011;66961;51.482;9.160;2023-07-29T12:23:58;2.03;;;1.00;;
77769;SDS011;66961;51.482;9.160;2023-07-29T12:26:27;1.30;;;0.98;;
77769;SDS011;66961;51.482;9.160;2023-07-29T12:28:53;1.25;;;0.95;;
77769;SDS011;66961;51.482;9.160;2023-07-29T12:31:18;1.40;;;0.95;;
77769;SDS011;66961;51.482;9.160;2023-07-29T12:33:43;1.70;;;1.10;;
77769;SDS011;66961;51.482;9.160;2023-07-29T12:36:09;3.38;;;0.90;;
77769;SDS011;66961;51.482;9.160;2023-07-29T12:38:35;2.60;;;0.90;;
77769;SDS011;66961;51.482;9.160;2023-07-29T12:41:00;1.23;;;0.70;;
77769;SDS011;66961;51.482;9.160;2023-07-29T12:43:25;1.43;;;0.90;;
77769;SDS011;66961;51.482;9.160;2023-07-29T12:45:51;1.90;;;0.73;;
77769;SDS011;66961;51.482;9.160;2023-07-29T12:48:17;1.42;;;0.80;;
77769;SDS011;66961;51.482;9.160;2023-07-29T12:50:42;1.17;;;0.75;;
77769;SDS011;66961;51.482;9.160;2023-07-29T12:53:08;1.40;;;0.70;;
77769;SDS011;66961;51.482;9.160;2023-07-29T12:55:33;1.65;;;0.60;;
77769;SDS011;66961;51.482;9.160;2023-07-29T12:57:59;1.13;;;0.73;;
77769;SDS011;66961;51.482;9.160;2023-07-29T13:00:24;2.28;;;0.90;;
77769;SDS011;66961;51.482;9.160;2023-07-29T13:02:50;0.90;;;0.70;;
77769;SDS011;66961;51.482;9.160;2023-07-29T13:05:16;1.20;;;1.02;;
77769;SDS011;66961;51.482;9.160;2023-07-29T13:07:42;1.25;;;0.82;;
77769;SDS011;66961;51.482;9.160;2023-07-29T13:10:08;1.40;;;1.00;;
77769;SDS011;66961;51.482;9.160;2023-07-29T13:12:34;1.38;;;0.85;;
77769;SDS011;66961;51.482;9.160;2023-07-29T13:14:59;1.98;;;0.90;;
77769;SDS011;66961;51.482;9.160;2023-07-29T13:17:25;2.20;;;1.02;;
77769;SDS011;66961;51.482;9.160;2023-07-29T13:19:50;1.50;;;0.80;;
77769;SDS011;66961;51.482;9.160;2023-07-29T13:22:15;1.27;;;1.00;;
77769;SDS011;66961;51.482;9.160;2023-07-29T13:24:41;1.10;;;0.90;;
77769;SDS011;66961;51.482;9.160;2023-07-29T13:27:06;1.52;;;1.08;;
77769;SDS011;66961;51.482;9.160;2023-07-29T13:29:32;1.65;;;1.13;;
77769;SDS011;66961;51.482;9.160;2023-07-29T13:31:57;2.20;;;1.23;;
77769;SDS011;66961;51.482;9.160;2023-07-29T13:34:22;1.73;;;1.10;;
77769;SDS011;66961;51.482;9.160;2023-07-29T13:36:47;1.85;;;1.23;;
77769;SDS011;66961;51.482;9.160;2023-07-29T13:39:13;2.20;;;1.50;;
77769;SDS011;66961;51.482;9.160;2023-07-29T13:41:38;1.70;;;1.08;;
77769;SDS011;66961;51.482;9.160;2023-07-29T13:44:03;2.00;;;1.15;;
77769;SDS011;66961;51.482;9.160;2023-07-29T13:46:29;2.70;;;1.02;;
77769;SDS011;66961;51.482;9.160;2023-07-29T13:48:54;2.42;;;1.10;;
77769;SDS011;66961;51.482;9.160;2023-07-29T13:51:20;1.63;;;1.07;;
77769;SDS011;66961;51.482;9.160;2023-07-29T13:53:45;2.53;;;1.17;;
77769;SDS011;66961;51.482;9.160;2023-07-29T13:56:10;1.83;;;1.20;;
77769;SDS011;66961;51.482;9.160;2023-07-29T13:58:35;1.05;;;0.80;;
77769;SDS011;66961;51.482;9.160;2023-07-29T14:01:01;1.38;;;0.98;;
77769;SDS011;66961;51.482;9.160;2023-07-29T14:03:26;1.73;;;1.17;;
77769;SDS011;66961;51.482;9.160;2023-07-29T14:05:51;2.17;;;1.15;;
77769;SDS011;66961;51.482;9.160;2023-07-29T14:08:17;1.92;;;0.80;;
77769;SDS011;66961;51.482;9.160;2023-07-29T14:10:42;1.65;;;1.10;;
77769;SDS011;66961;51.482;9.160;2023-07-29T14:13:07;1.42;;;0.95;;
77769;SDS011;66961;51.482;9.160;2023-07-29T14:15:33;1.40;;;0.97;;
77769;SDS011;66961;51.482;9.160;2023-07-29T14:17:58;1.20;;;0.80;;
77769;SDS011;66961;51.482;9.160;2023-07-29T14:20:23;1.87;;;1.10;;
77769;SDS011;66961;51.482;9.160;2023-07-29T14:22:49;1.05;;;0.75;;
77769;SDS011;66961;51.482;9.160;2023-07-29T14:25:14;1.00;;;0.80;;
77769;SDS011;66961;51.482;9.160;2023-07-29T14:27:39;1.23;;;1.05;;
77769;SDS011;66961;51.482;9.160;2023-07-29T14:30:05;2.40;;;1.10;;
77769;SDS011;66961;51.482;9.160;2023-07-29T14:32:31;1.20;;;0.98;;
77769;SDS011;66961;51.482;9.160;2023-07-29T14:34:56;2.05;;;0.82;;
77769;SDS011;66961;51.482;9.160;2023-07-29T14:37:21;1.60;;;1.00;;
77769;SDS011;66961;51.482;9.160;2023-07-29T14:39:47;0.93;;;0.80;;
77769;SDS011;66961;51.482;9.160;2023-07-29T14:42:12;1.40;;;1.10;;
77769;SDS011;66961;51.482;9.160;2023-07-29T14:44:37;1.15;;;0.90;;
77769;SDS011;66961;51.482;9.160;2023-07-29T14:47:03;3.22;;;0.90;;
77769;SDS011;66961;51.482;9.160;2023-07-29T14:49:28;3.08;;;1.02;;
77769;SDS011;66961;51.482;9.160;2023-07-29T14:51:53;1.40;;;1.00;;
77769;SDS011;66961;51.482;9.160;2023-07-29T14:54:19;1.10;;;0.88;;
77769;SDS011;66961;51.482;9.160;2023-07-29T14:56:44;1.67;;;1.10;;
77769;SDS011;66961;51.482;9.160;2023-07-29T14:59:09;1.00;;;0.90;;
77769;SDS011;66961;51.482;9.160;2023-07-29T15:01:35;1.17;;;1.08;;
77769;SDS011;66961;51.482;9.160;2023-07-29T15:04:00;3.05;;;1.20;;